sensor_id;sensor_type;location;lat;lon;timestamp;temperature;humidity
25918;DHT22;13899;51.174;4.456;2023-05-19T00:01:39;12.60;99.90
25918;DHT22;13899;51.174;4.456;2023-05-19T00:04:09;12.50;99.90
25918;DHT22;13899;51.174;4.456;2023-05-19T00:06:37;12.50;99.90
25918;DHT22;13899;51.174;4.456;2023-05-19T00:09:08;12.40;99.90
25918;DHT22;13899;51.174;4.456;2023-05-19T00:11:35;12.50;99.90
25918;DHT22;13899;51.174;4.456;2023-05-19T00:14:03;12.40;99.90
25918;DHT22;13899;51.174;4.456;2023-05-19T00:16:29;12.40;99.90
25918;DHT22;13899;51.174;4.456;2023-05-19T00:18:57;12.50;99.90
25918;DHT22;13899;51.174;4.456;2023-05-19T00:21:24;12.40;99.90
25918;DHT22;13899;51.174;4.456;2023-05-19T00:23:50;12.30;99.90
25918;DHT22;13899;51.174;4.456;2023-05-19T00:26:16;12.40;99.90
25918;DHT22;13899;51.174;4.456;2023-05-19T00:28:41;12.40;99.90
25918;DHT22;13899;51.174;4.456;2023-05-19T00:31:07;12.40;99.90
25918;DHT22;13899;51.174;4.456;2023-05-19T00:33:33;12.30;99.90
25918;DHT22;13899;51.174;4.456;2023-05-19T00:36:02;12.40;99.90
25918;DHT22;13899;51.174;4.456;2023-05-19T00:38:30;12.30;99.90
25918;DHT22;13899;51.174;4.456;2023-05-19T00:40:56;12.30;99.90
25918;DHT22;13899;51.174;4.456;2023-05-19T00:43:21;12.30;99.90
25918;DHT22;13899;51.174;4.456;2023-05-19T00:45:47;12.30;99.90
25918;DHT22;13899;51.174;4.456;2023-05-19T00:48:13;12.20;99.90
25918;DHT22;13899;51.174;4.456;2023-05-19T00:50:39;12.20;99.90
25918;DHT22;13899;51.174;4.456;2023-05-19T00:53:05;12.30;99.90
25918;DHT22;13899;51.174;4.456;2023-05-19T00:55:32;12.30;99.90
25918;DHT22;13899;51.174;4.456;2023-05-19T00:57:58;12.30;99.90
25918;DHT22;13899;51.174;4.456;2023-05-19T01:00:23;12.40;99.90
25918;DHT22;13899;51.174;4.456;2023-05-19T01:02:49;12.60;99.90
25918;DHT22;13899;51.174;4.456;2023-05-19T01:05:16;12.50;99.90
25918;DHT22;13899;51.174;4.456;2023-05-19T01:07:42;12.60;99.90
25918;DHT22;13899;51.174;4.456;2023-05-19T01:10:08;12.50;99.90
25918;DHT22;13899;51.174;4.456;2023-05-19T01:12:34;12.40;99.90
25918;DHT22;13899;51.174;4.456;2023-05-19T01:15:02;12.30;99.90
25918;DHT22;13899;51.174;4.456;2023-05-19T01:19:59;12.20;99.90
25918;DHT22;13899;51.174;4.456;2023-05-19T01:31:00;12.10;99.90
25918;DHT22;13899;51.174;4.456;2023-05-19T01:33:29;12.10;99.90
25918;DHT22;13899;51.174;4.456;2023-05-19T01:35:57;12.20;99.90
25918;DHT22;13899;51.174;4.456;2023-05-19T01:38:24;12.10;99.90
25918;DHT22;13899;51.174;4.456;2023-05-19T01:40:51;12.10;99.90
25918;DHT22;13899;51.174;4.456;2023-05-19T01:43:21;12.00;99.90
25918;DHT22;13899;51.174;4.456;2023-05-19T01:45:47;12.00;99.90
25918;DHT22;13899;51.174;4.456;2023-05-19T01:48:13;11.90;99.90
25918;DHT22;13899;51.174;4.456;2023-05-19T01:50:40;12.00;99.90
25918;DHT22;13899;51.174;4.456;2023-05-19T01:53:06;11.90;99.90
25918;DHT22;13899;51.174;4.456;2023-05-19T01:55:34;11.80;99.90
25918;DHT22;13899;51.174;4.456;2023-05-19T02:04:04;12.00;99.90
25918;DHT22;13899;51.174;4.456;2023-05-19T02:06:42;11.90;99.90
25918;DHT22;13899;51.174;4.456;2023-05-19T02:11:53;11.80;99.90
25918;DHT22;13899;51.174;4.456;2023-05-19T02:17:11;11.70;99.90
25918;DHT22;13899;51.174;4.456;2023-05-19T02:19:38;11.70;99.90
25918;DHT22;13899;51.174;4.456;2023-05-19T02:22:04;11.50;99.90
25918;DHT22;13899;51.174;4.456;2023-05-19T02:24:30;11.60;99.90
25918;DHT22;13899;51.174;4.456;2023-05-19T02:26:56;11.60;99.90
25918;DHT22;13899;51.174;4.456;2023-05-19T02:29:22;11.70;99.90
25918;DHT22;13899;51.174;4.456;2023-05-19T02:31:47;11.60;99.90
25918;DHT22;13899;51.174;4.456;2023-05-19T02:34:13;11.60;99.90
25918;DHT22;13899;51.174;4.456;2023-05-19T02:36:40;11.70;99.90
25918;DHT22;13899;51.174;4.456;2023-05-19T02:39:10;11.70;99.90
25918;DHT22;13899;51.174;4.456;2023-05-19T02:41:37;11.60;99.90
25918;DHT22;13899;51.174;4.456;2023-05-19T02:44:03;11.70;99.90
25918;DHT22;13899;51.174;4.456;2023-05-19T02:46:28;11.60;99.90
25918;DHT22;13899;51.174;4.456;2023-05-19T02:48:54;11.60;99.90
25918;DHT22;13899;51.174;4.456;2023-05-19T02:51:20;11.50;99.90
25918;DHT22;13899;51.174;4.456;2023-05-19T02:53:46;11.50;99.90
25918;DHT22;13899;51.174;4.456;2023-05-19T02:56:11;11.50;99.90
25918;DHT22;13899;51.174;4.456;2023-05-19T02:58:37;11.50;99.90
25918;DHT22;13899;51.174;4.456;2023-05-19T03:01:03;11.40;99.90
25918;DHT22;13899;51.174;4.456;2023-05-19T03:03:29;11.40;99.90
25918;DHT22;13899;51.174;4.456;2023-05-19T03:05:55;11.10;99.90
25918;DHT22;13899;51.174;4.456;2023-05-19T03:08:21;11.20;99.90
25918;DHT22;13899;51.174;4.456;2023-05-19T03:10:46;11.20;99.90
25918;DHT22;13899;51.174;4.456;2023-05-19T03:13:12;11.20;99.90
25918;DHT22;13899;51.174;4.456;2023-05-19T03:15:38;11.20;99.90
25918;DHT22;13899;51.174;4.456;2023-05-19T03:18:04;11.20;99.90
25918;DHT22;13899;51.174;4.456;2023-05-19T03:20:30;11.20;99.90
25918;DHT22;13899;51.174;4.456;2023-05-19T03:22:56;11.20;99.90
25918;DHT22;13899;51.174;4.456;2023-05-19T03:25:22;11.30;99.90
25918;DHT22;13899;51.174;4.456;2023-05-19T03:27:48;11.30;99.90
25918;DHT22;13899;51.174;4.456;2023-05-19T03:30:14;11.30;99.90
25918;DHT22;13899;51.174;4.456;2023-05-19T03:32:39;11.20;99.90
25918;DHT22;13899;51.174;4.456;2023-05-19T03:35:05;11.20;99.90
25918;DHT22;13899;51.174;4.456;2023-05-19T03:37:31;11.30;99.90
25918;DHT22;13899;51.174;4.456;2023-05-19T03:39:57;11.30;99.90
25918;DHT22;13899;51.174;4.456;2023-05-19T03:42:23;11.30;99.90
25918;DHT22;13899;51.174;4.456;2023-05-19T03:44:49;11.30;99.90
25918;DHT22;13899;51.174;4.456;2023-05-19T03:47:15;11.30;99.90
25918;DHT22;13899;51.174;4.456;2023-05-19T03:49:41;11.20;99.90
25918;DHT22;13899;51.174;4.456;2023-05-19T03:52:06;11.10;99.90
25918;DHT22;13899;51.174;4.456;2023-05-19T03:54:33;11.10;99.90
25918;DHT22;13899;51.174;4.456;2023-05-19T03:56:58;11.00;99.90
25918;DHT22;13899;51.174;4.456;2023-05-19T03:59:24;11.10;99.90
25918;DHT22;13899;51.174;4.456;2023-05-19T04:01:50;11.00;99.90
25918;DHT22;13899;51.174;4.456;2023-05-19T04:04:16;11.10;99.90
25918;DHT22;13899;51.174;4.456;2023-05-19T04:06:42;11.10;99.90
25918;DHT22;13899;51.174;4.456;2023-05-19T04:09:12;11.00;99.90
25918;DHT22;13899;51.174;4.456;2023-05-19T04:11:39;10.90;99.90
25918;DHT22;13899;51.174;4.456;2023-05-19T04:14:05;10.80;99.90
25918;DHT22;13899;51.174;4.456;2023-05-19T04:16:31;10.70;99.90
25918;DHT22;13899;51.174;4.456;2023-05-19T04:18:57;10.70;99.90
25918;DHT22;13899;51.174;4.456;2023-05-19T04:21:22;10.70;99.90
25918;DHT22;13899;51.174;4.456;2023-05-19T04:23:48;10.80;99.90
25918;DHT22;13899;51.174;4.456;2023-05-19T04:26:14;10.90;99.90
25918;DHT22;13899;51.174;4.456;2023-05-19T04:28:40;10.90;99.90
25918;DHT22;13899;51.174;4.456;2023-05-19T04:31:09;10.80;99.90
25918;DHT22;13899;51.174;4.456;2023-05-19T04:33:38;10.90;99.90
25918;DHT22;13899;51.174;4.456;2023-05-19T04:36:05;11.10;99.90
25918;DHT22;13899;51.174;4.456;2023-05-19T04:38:36;11.00;99.90
25918;DHT22;13899;51.174;4.456;2023-05-19T04:41:04;10.80;99.90
25918;DHT22;13899;51.174;4.456;2023-05-19T04:43:30;10.90;99.90
25918;DHT22;13899;51.174;4.456;2023-05-19T04:45:56;11.00;99.90
25918;DHT22;13899;51.174;4.456;2023-05-19T04:48:22;11.00;99.90
25918;DHT22;13899;51.174;4.456;2023-05-19T04:50:49;11.20;99.90
25918;DHT22;13899;51.174;4.456;2023-05-19T04:53:16;11.30;99.90
25918;DHT22;13899;51.174;4.456;2023-05-19T04:55:42;11.20;99.90
25918;DHT22;13899;51.174;4.456;2023-05-19T04:58:08;11.30;99.90
25918;DHT22;13899;51.174;4.456;2023-05-19T05:00:35;11.30;99.90
25918;DHT22;13899;51.174;4.456;2023-05-19T05:03:01;11.20;99.90
25918;DHT22;13899;51.174;4.456;2023-05-19T05:05:30;11.00;99.90
25918;DHT22;13899;51.174;4.456;2023-05-19T05:07:55;11.10;99.90
25918;DHT22;13899;51.174;4.456;2023-05-19T05:10:21;11.20;99.90
25918;DHT22;13899;51.174;4.456;2023-05-19T05:12:48;11.40;99.90
25918;DHT22;13899;51.174;4.456;2023-05-19T05:17:56;11.30;99.90
25918;DHT22;13899;51.174;4.456;2023-05-19T05:20:23;11.30;99.90
25918;DHT22;13899;51.174;4.456;2023-05-19T05:22:48;11.50;99.90
25918;DHT22;13899;51.174;4.456;2023-05-19T05:25:17;11.80;99.90
25918;DHT22;13899;51.174;4.456;2023-05-19T05:27:42;11.70;99.90
25918;DHT22;13899;51.174;4.456;2023-05-19T05:30:12;11.60;99.90
25918;DHT22;13899;51.174;4.456;2023-05-19T05:32:39;11.60;99.90
25918;DHT22;13899;51.174;4.456;2023-05-19T05:35:05;11.70;99.90
25918;DHT22;13899;51.174;4.456;2023-05-19T05:37:31;11.60;99.90
25918;DHT22;13899;51.174;4.456;2023-05-19T05:39:57;11.80;99.90
25918;DHT22;13899;51.174;4.456;2023-05-19T05:42:22;11.80;99.90
25918;DHT22;13899;51.174;4.456;2023-05-19T05:44:48;12.00;99.90
25918;DHT22;13899;51.174;4.456;2023-05-19T05:47:14;12.00;99.90
25918;DHT22;13899;51.174;4.456;2023-05-19T05:49:40;11.80;99.90
25918;DHT22;13899;51.174;4.456;2023-05-19T05:52:07;11.80;99.90
25918;DHT22;13899;51.174;4.456;2023-05-19T05:54:34;11.80;99.90
25918;DHT22;13899;51.174;4.456;2023-05-19T05:57:00;12.00;99.90
25918;DHT22;13899;51.174;4.456;2023-05-19T05:59:28;12.20;99.90
25918;DHT22;13899;51.174;4.456;2023-05-19T06:01:55;12.30;99.90
25918;DHT22;13899;51.174;4.456;2023-05-19T06:04:20;12.30;99.90
25918;DHT22;13899;51.174;4.456;2023-05-19T06:06:47;12.30;99.90
25918;DHT22;13899;51.174;4.456;2023-05-19T06:09:13;12.10;99.90
25918;DHT22;13899;51.174;4.456;2023-05-19T06:11:38;12.50;99.90
25918;DHT22;13899;51.174;4.456;2023-05-19T06:14:04;12.90;99.90
25918;DHT22;13899;51.174;4.456;2023-05-19T06:16:30;13.30;99.90
25918;DHT22;13899;51.174;4.456;2023-05-19T06:18:56;13.50;99.90
25918;DHT22;13899;51.174;4.456;2023-05-19T06:21:26;13.40;99.90
25918;DHT22;13899;51.174;4.456;2023-05-19T06:23:51;13.20;99.90
25918;DHT22;13899;51.174;4.456;2023-05-19T06:26:17;13.20;99.90
25918;DHT22;13899;51.174;4.456;2023-05-19T06:28:43;13.40;99.90
25918;DHT22;13899;51.174;4.456;2023-05-19T06:31:08;13.20;99.90
25918;DHT22;13899;51.174;4.456;2023-05-19T06:33:34;13.30;99.90
25918;DHT22;13899;51.174;4.456;2023-05-19T06:36:00;13.50;99.90
25918;DHT22;13899;51.174;4.456;2023-05-19T06:38:25;13.90;99.90
25918;DHT22;13899;51.174;4.456;2023-05-19T06:40:51;14.10;99.90
25918;DHT22;13899;51.174;4.456;2023-05-19T06:43:17;14.20;99.90
25918;DHT22;13899;51.174;4.456;2023-05-19T06:45:42;14.50;99.90
25918;DHT22;13899;51.174;4.456;2023-05-19T06:48:08;14.70;99.90
25918;DHT22;13899;51.174;4.456;2023-05-19T06:50:34;14.70;99.90
25918;DHT22;13899;51.174;4.456;2023-05-19T06:53:01;14.50;99.90
25918;DHT22;13899;51.174;4.456;2023-05-19T06:55:28;14.50;99.90
25918;DHT22;13899;51.174;4.456;2023-05-19T06:57:55;14.70;99.90
25918;DHT22;13899;51.174;4.456;2023-05-19T07:00:21;14.20;99.90
25918;DHT22;13899;51.174;4.456;2023-05-19T07:02:51;14.40;99.90
25918;DHT22;13899;51.174;4.456;2023-05-19T07:05:20;14.60;99.90
25918;DHT22;13899;51.174;4.456;2023-05-19T07:07:45;15.10;99.90
25918;DHT22;13899;51.174;4.456;2023-05-19T07:10:11;15.40;99.90
25918;DHT22;13899;51.174;4.456;2023-05-19T07:12:37;15.70;99.90
25918;DHT22;13899;51.174;4.456;2023-05-19T07:15:06;15.70;99.90
25918;DHT22;13899;51.174;4.456;2023-05-19T07:17:37;15.70;99.90
25918;DHT22;13899;51.174;4.456;2023-05-19T07:20:03;15.60;99.90
25918;DHT22;13899;51.174;4.456;2023-05-19T07:22:31;15.40;99.90
25918;DHT22;13899;51.174;4.456;2023-05-19T07:25:01;15.40;99.90
25918;DHT22;13899;51.174;4.456;2023-05-19T07:27:26;15.50;99.90
25918;DHT22;13899;51.174;4.456;2023-05-19T07:29:53;15.60;99.90
25918;DHT22;13899;51.174;4.456;2023-05-19T07:32:19;15.70;99.90
25918;DHT22;13899;51.174;4.456;2023-05-19T07:34:45;15.70;99.90
25918;DHT22;13899;51.174;4.456;2023-05-19T07:37:10;16.00;99.90
25918;DHT22;13899;51.174;4.456;2023-05-19T07:39:36;15.70;99.90
25918;DHT22;13899;51.174;4.456;2023-05-19T07:42:02;15.50;99.90
25918;DHT22;13899;51.174;4.456;2023-05-19T07:44:28;15.90;99.90
25918;DHT22;13899;51.174;4.456;2023-05-19T07:46:55;15.90;99.90
25918;DHT22;13899;51.174;4.456;2023-05-19T07:49:21;15.80;99.90
25918;DHT22;13899;51.174;4.456;2023-05-19T07:51:48;15.60;99.90
25918;DHT22;13899;51.174;4.456;2023-05-19T07:54:14;16.00;99.90
25918;DHT22;13899;51.174;4.456;2023-05-19T07:56:40;16.20;99.90
25918;DHT22;13899;51.174;4.456;2023-05-19T07:59:06;16.20;99.90
25918;DHT22;13899;51.174;4.456;2023-05-19T08:01:33;16.30;99.90
25918;DHT22;13899;51.174;4.456;2023-05-19T08:04:23;16.20;99.90
25918;DHT22;13899;51.174;4.456;2023-05-19T08:06:49;16.90;99.90
25918;DHT22;13899;51.174;4.456;2023-05-19T08:09:20;16.70;99.90
25918;DHT22;13899;51.174;4.456;2023-05-19T08:11:54;17.10;99.90
25918;DHT22;13899;51.174;4.456;2023-05-19T08:14:20;17.00;99.90
25918;DHT22;13899;51.174;4.456;2023-05-19T08:16:47;16.80;99.90
25918;DHT22;13899;51.174;4.456;2023-05-19T08:19:14;17.40;99.90
25918;DHT22;13899;51.174;4.456;2023-05-19T08:21:40;17.20;99.90
25918;DHT22;13899;51.174;4.456;2023-05-19T08:24:07;17.50;99.90
25918;DHT22;13899;51.174;4.456;2023-05-19T08:26:34;17.40;99.90
25918;DHT22;13899;51.174;4.456;2023-05-19T08:29:00;17.20;99.90
25918;DHT22;13899;51.174;4.456;2023-05-19T08:31:26;17.20;99.90
25918;DHT22;13899;51.174;4.456;2023-05-19T08:33:51;16.90;99.90
25918;DHT22;13899;51.174;4.456;2023-05-19T08:36:17;17.00;99.90
25918;DHT22;13899;51.174;4.456;2023-05-19T08:38:43;17.30;99.90
25918;DHT22;13899;51.174;4.456;2023-05-19T08:41:09;17.30;99.90
25918;DHT22;13899;51.174;4.456;2023-05-19T08:43:35;17.80;99.90
25918;DHT22;13899;51.174;4.456;2023-05-19T08:46:03;17.50;99.90
25918;DHT22;13899;51.174;4.456;2023-05-19T08:48:30;17.90;99.90
25918;DHT22;13899;51.174;4.456;2023-05-19T08:53:43;18.10;99.90
25918;DHT22;13899;51.174;4.456;2023-05-19T08:56:19;18.50;99.90
25918;DHT22;13899;51.174;4.456;2023-05-19T08:58:49;19.00;99.90
25918;DHT22;13899;51.174;4.456;2023-05-19T09:01:15;18.80;99.90
25918;DHT22;13899;51.174;4.456;2023-05-19T09:03:45;18.20;99.90
25918;DHT22;13899;51.174;4.456;2023-05-19T09:06:11;18.30;99.90
25918;DHT22;13899;51.174;4.456;2023-05-19T09:08:38;18.40;99.90
25918;DHT22;13899;51.174;4.456;2023-05-19T09:11:04;18.30;99.90
25918;DHT22;13899;51.174;4.456;2023-05-19T09:13:30;18.90;99.90
25918;DHT22;13899;51.174;4.456;2023-05-19T09:15:56;19.10;99.90
25918;DHT22;13899;51.174;4.456;2023-05-19T09:18:24;18.70;99.90
25918;DHT22;13899;51.174;4.456;2023-05-19T09:20:57;19.00;99.90
25918;DHT22;13899;51.174;4.456;2023-05-19T09:23:33;18.80;99.90
25918;DHT22;13899;51.174;4.456;2023-05-19T09:26:03;18.90;99.90
25918;DHT22;13899;51.174;4.456;2023-05-19T09:28:33;19.20;99.90
25918;DHT22;13899;51.174;4.456;2023-05-19T09:31:09;19.10;99.90
25918;DHT22;13899;51.174;4.456;2023-05-19T09:33:37;18.80;99.90
25918;DHT22;13899;51.174;4.456;2023-05-19T09:36:03;18.80;99.90
25918;DHT22;13899;51.174;4.456;2023-05-19T09:38:39;19.20;99.90
25918;DHT22;13899;51.174;4.456;2023-05-19T09:41:06;19.10;99.90
25918;DHT22;13899;51.174;4.456;2023-05-19T09:43:33;19.40;99.90
25918;DHT22;13899;51.174;4.456;2023-05-19T09:46:05;19.70;99.90
25918;DHT22;13899;51.174;4.456;2023-05-19T09:48:32;20.80;99.90
25918;DHT22;13899;51.174;4.456;2023-05-19T09:51:00;22.40;99.90
25918;DHT22;13899;51.174;4.456;2023-05-19T09:53:25;22.80;99.90
25918;DHT22;13899;51.174;4.456;2023-05-19T09:55:55;22.80;99.90
25918;DHT22;13899;51.174;4.456;2023-05-19T09:58:24;23.10;99.90
25918;DHT22;13899;51.174;4.456;2023-05-19T10:00:50;23.10;99.90
25918;DHT22;13899;51.174;4.456;2023-05-19T10:03:22;22.40;99.90
25918;DHT22;13899;51.174;4.456;2023-05-19T10:05:49;22.10;99.90
25918;DHT22;13899;51.174;4.456;2023-05-19T10:08:16;23.50;98.00
25918;DHT22;13899;51.174;4.456;2023-05-19T10:10:42;23.10;98.20
25918;DHT22;13899;51.174;4.456;2023-05-19T10:13:10;21.80;99.90
25918;DHT22;13899;51.174;4.456;2023-05-19T10:15:36;21.60;99.90
25918;DHT22;13899;51.174;4.456;2023-05-19T10:18:02;22.50;99.90
25918;DHT22;13899;51.174;4.456;2023-05-19T10:20:28;23.50;98.00
25918;DHT22;13899;51.174;4.456;2023-05-19T10:22:55;23.50;95.70
25918;DHT22;13899;51.174;4.456;2023-05-19T10:25:20;23.70;95.80
25918;DHT22;13899;51.174;4.456;2023-05-19T10:27:55;23.80;96.00
25918;DHT22;13899;51.174;4.456;2023-05-19T10:30:28;22.00;98.00
25918;DHT22;13899;51.174;4.456;2023-05-19T10:32:55;20.90;99.80
25918;DHT22;13899;51.174;4.456;2023-05-19T10:46:32;26.30;91.30
25918;DHT22;13899;51.174;4.456;2023-05-19T10:48:58;27.00;85.00
25918;DHT22;13899;51.174;4.456;2023-05-19T10:51:30;27.00;79.00
25918;DHT22;13899;51.174;4.456;2023-05-19T10:53:56;25.90;82.80
25918;DHT22;13899;51.174;4.456;2023-05-19T10:56:31;26.00;84.70
25918;DHT22;13899;51.174;4.456;2023-05-19T10:59:01;26.20;81.50
25918;DHT22;13899;51.174;4.456;2023-05-19T11:01:34;27.70;74.20
25918;DHT22;13899;51.174;4.456;2023-05-19T11:04:08;28.40;69.00
25918;DHT22;13899;51.174;4.456;2023-05-19T11:06:37;28.10;66.90
25918;DHT22;13899;51.174;4.456;2023-05-19T11:09:13;28.50;65.50
25918;DHT22;13899;51.174;4.456;2023-05-19T11:12:01;26.70;68.70
25918;DHT22;13899;51.174;4.456;2023-05-19T11:14:31;27.00;66.80
25918;DHT22;13899;51.174;4.456;2023-05-19T11:16:57;28.40;64.30
25918;DHT22;13899;51.174;4.456;2023-05-19T11:20:11;28.10;61.60
25918;DHT22;13899;51.174;4.456;2023-05-19T11:22:15;27.00;63.10
25918;DHT22;13899;51.174;4.456;2023-05-19T11:24:44;26.50;66.00
25918;DHT22;13899;51.174;4.456;2023-05-19T11:27:29;25.90;66.80
25918;DHT22;13899;51.174;4.456;2023-05-19T11:29:58;27.00;65.90
25918;DHT22;13899;51.174;4.456;2023-05-19T11:32:29;28.50;63.00
25918;DHT22;13899;51.174;4.456;2023-05-19T11:34:56;30.50;58.20
25918;DHT22;13899;51.174;4.456;2023-05-19T11:37:22;31.20;57.60
25918;DHT22;13899;51.174;4.456;2023-05-19T11:39:48;29.90;55.60
25918;DHT22;13899;51.174;4.456;2023-05-19T11:42:14;30.20;54.20
25918;DHT22;13899;51.174;4.456;2023-05-19T11:44:40;31.30;51.90
25918;DHT22;13899;51.174;4.456;2023-05-19T11:47:06;31.20;52.00
25918;DHT22;13899;51.174;4.456;2023-05-19T11:49:32;31.70;50.90
25918;DHT22;13899;51.174;4.456;2023-05-19T11:52:01;32.10;50.00
25918;DHT22;13899;51.174;4.456;2023-05-19T11:54:32;33.20;46.20
25918;DHT22;13899;51.174;4.456;2023-05-19T11:57:02;32.30;48.10
25918;DHT22;13899;51.174;4.456;2023-05-19T11:59:29;33.20;45.30
25918;DHT22;13899;51.174;4.456;2023-05-19T12:01:56;32.00;45.40
25918;DHT22;13899;51.174;4.456;2023-05-19T12:04:21;31.20;45.70
25918;DHT22;13899;51.174;4.456;2023-05-19T12:06:48;31.00;46.90
25918;DHT22;13899;51.174;4.456;2023-05-19T12:09:14;31.60;46.80
25918;DHT22;13899;51.174;4.456;2023-05-19T12:11:39;32.60;45.70
25918;DHT22;13899;51.174;4.456;2023-05-19T12:14:06;32.70;45.00
25918;DHT22;13899;51.174;4.456;2023-05-19T12:16:34;32.70;44.60
25918;DHT22;13899;51.174;4.456;2023-05-19T12:19:00;32.40;46.00
25918;DHT22;13899;51.174;4.456;2023-05-19T12:21:25;33.00;44.60
25918;DHT22;13899;51.174;4.456;2023-05-19T12:23:51;33.40;43.80
25918;DHT22;13899;51.174;4.456;2023-05-19T12:26:17;32.30;43.90
25918;DHT22;13899;51.174;4.456;2023-05-19T12:28:44;31.20;44.70
25918;DHT22;13899;51.174;4.456;2023-05-19T12:31:10;30.90;45.80
25918;DHT22;13899;51.174;4.456;2023-05-19T12:33:36;31.60;45.20
25918;DHT22;13899;51.174;4.456;2023-05-19T12:36:02;31.10;45.30
25918;DHT22;13899;51.174;4.456;2023-05-19T12:38:29;31.50;44.00
25918;DHT22;13899;51.174;4.456;2023-05-19T12:40:57;32.30;43.50
25918;DHT22;13899;51.174;4.456;2023-05-19T12:43:24;33.00;42.40
25918;DHT22;13899;51.174;4.456;2023-05-19T12:45:50;33.40;41.90
25918;DHT22;13899;51.174;4.456;2023-05-19T12:48:16;33.30;42.70
25918;DHT22;13899;51.174;4.456;2023-05-19T12:50:43;33.10;43.20
25918;DHT22;13899;51.174;4.456;2023-05-19T12:53:12;33.10;42.50
25918;DHT22;13899;51.174;4.456;2023-05-19T12:55:42;33.20;41.90
25918;DHT22;13899;51.174;4.456;2023-05-19T12:58:12;33.90;42.40
25918;DHT22;13899;51.174;4.456;2023-05-19T13:00:46;33.70;42.40
25918;DHT22;13899;51.174;4.456;2023-05-19T13:03:22;33.70;41.80
25918;DHT22;13899;51.174;4.456;2023-05-19T13:05:49;34.40;40.80
25918;DHT22;13899;51.174;4.456;2023-05-19T13:08:20;36.00;40.90
25918;DHT22;13899;51.174;4.456;2023-05-19T13:10:46;35.90;40.50
25918;DHT22;13899;51.174;4.456;2023-05-19T13:13:13;35.20;39.60
25918;DHT22;13899;51.174;4.456;2023-05-19T13:15:44;35.80;39.90
25918;DHT22;13899;51.174;4.456;2023-05-19T13:18:11;35.00;38.70
25918;DHT22;13899;51.174;4.456;2023-05-19T13:20:38;34.70;38.30
25918;DHT22;13899;51.174;4.456;2023-05-19T13:23:05;34.40;38.50
25918;DHT22;13899;51.174;4.456;2023-05-19T13:25:34;34.60;38.50
25918;DHT22;13899;51.174;4.456;2023-05-19T13:28:01;34.20;40.00
25918;DHT22;13899;51.174;4.456;2023-05-19T13:30:33;35.30;38.70
25918;DHT22;13899;51.174;4.456;2023-05-19T13:32:59;35.90;38.90
25918;DHT22;13899;51.174;4.456;2023-05-19T13:35:24;36.80;37.50
25918;DHT22;13899;51.174;4.456;2023-05-19T13:37:50;35.60;37.40
25918;DHT22;13899;51.174;4.456;2023-05-19T13:40:16;35.80;37.30
25918;DHT22;13899;51.174;4.456;2023-05-19T13:42:42;33.80;38.50
25918;DHT22;13899;51.174;4.456;2023-05-19T13:45:09;35.10;37.70
25918;DHT22;13899;51.174;4.456;2023-05-19T13:47:36;35.00;38.60
25918;DHT22;13899;51.174;4.456;2023-05-19T13:50:02;35.30;38.90
25918;DHT22;13899;51.174;4.456;2023-05-19T13:52:29;34.40;38.60
25918;DHT22;13899;51.174;4.456;2023-05-19T13:54:55;33.50;39.40
25918;DHT22;13899;51.174;4.456;2023-05-19T13:57:24;34.20;38.60
25918;DHT22;13899;51.174;4.456;2023-05-19T13:59:50;34.70;38.10
25918;DHT22;13899;51.174;4.456;2023-05-19T14:02:16;35.60;38.00
25918;DHT22;13899;51.174;4.456;2023-05-19T14:04:43;34.40;37.50
25918;DHT22;13899;51.174;4.456;2023-05-19T14:07:09;33.60;38.10
25918;DHT22;13899;51.174;4.456;2023-05-19T14:09:35;34.30;37.90
25918;DHT22;13899;51.174;4.456;2023-05-19T14:12:01;34.20;36.90
25918;DHT22;13899;51.174;4.456;2023-05-19T14:14:27;32.70;37.20
25918;DHT22;13899;51.174;4.456;2023-05-19T14:16:53;32.10;38.00
25918;DHT22;13899;51.174;4.456;2023-05-19T14:19:18;32.10;38.40
25918;DHT22;13899;51.174;4.456;2023-05-19T14:21:44;32.40;38.20
25918;DHT22;13899;51.174;4.456;2023-05-19T14:24:10;33.00;37.50
25918;DHT22;13899;51.174;4.456;2023-05-19T14:26:35;32.40;37.90
25918;DHT22;13899;51.174;4.456;2023-05-19T14:29:01;33.20;38.50
25918;DHT22;13899;51.174;4.456;2023-05-19T14:31:27;33.20;38.50
25918;DHT22;13899;51.174;4.456;2023-05-19T14:33:53;32.50;38.30
25918;DHT22;13899;51.174;4.456;2023-05-19T14:36:18;31.30;39.50
25918;DHT22;13899;51.174;4.456;2023-05-19T14:38:44;31.60;39.70
25918;DHT22;13899;51.174;4.456;2023-05-19T14:41:10;31.10;40.60
25918;DHT22;13899;51.174;4.456;2023-05-19T14:43:35;31.10;40.20
25918;DHT22;13899;51.174;4.456;2023-05-19T14:46:01;31.30;40.40
25918;DHT22;13899;51.174;4.456;2023-05-19T14:48:26;31.40;40.40
25918;DHT22;13899;51.174;4.456;2023-05-19T14:50:52;30.80;40.00
25918;DHT22;13899;51.174;4.456;2023-05-19T14:53:18;31.30;40.80
25918;DHT22;13899;51.174;4.456;2023-05-19T14:55:46;30.50;40.70
25918;DHT22;13899;51.174;4.456;2023-05-19T14:58:13;29.40;42.10
25918;DHT22;13899;51.174;4.456;2023-05-19T15:00:38;28.00;43.40
25918;DHT22;13899;51.174;4.456;2023-05-19T15:03:04;27.10;44.90
25918;DHT22;13899;51.174;4.456;2023-05-19T15:05:30;26.60;45.40
25918;DHT22;13899;51.174;4.456;2023-05-19T15:07:55;26.70;45.00
25918;DHT22;13899;51.174;4.456;2023-05-19T15:10:21;26.10;45.30
25918;DHT22;13899;51.174;4.456;2023-05-19T15:12:47;25.40;46.50
25918;DHT22;13899;51.174;4.456;2023-05-19T15:15:13;25.20;46.70
25918;DHT22;13899;51.174;4.456;2023-05-19T15:17:40;25.40;46.50
25918;DHT22;13899;51.174;4.456;2023-05-19T15:20:06;26.10;45.90
25918;DHT22;13899;51.174;4.456;2023-05-19T15:22:32;26.00;46.70
25918;DHT22;13899;51.174;4.456;2023-05-19T15:24:58;25.80;46.90
25918;DHT22;13899;51.174;4.456;2023-05-19T15:27:25;26.40;46.40
25918;DHT22;13899;51.174;4.456;2023-05-19T15:29:51;25.90;46.10
25918;DHT22;13899;51.174;4.456;2023-05-19T15:32:16;25.40;46.70
25918;DHT22;13899;51.174;4.456;2023-05-19T15:34:42;25.10;48.70
25918;DHT22;13899;51.174;4.456;2023-05-19T15:37:08;25.00;47.50
25918;DHT22;13899;51.174;4.456;2023-05-19T15:39:34;25.50;47.80
25918;DHT22;13899;51.174;4.456;2023-05-19T15:41:59;25.80;47.60
25918;DHT22;13899;51.174;4.456;2023-05-19T15:44:25;25.80;47.80
25918;DHT22;13899;51.174;4.456;2023-05-19T15:46:50;25.80;47.50
25918;DHT22;13899;51.174;4.456;2023-05-19T15:49:16;25.60;48.40
25918;DHT22;13899;51.174;4.456;2023-05-19T15:51:44;25.40;47.70
25918;DHT22;13899;51.174;4.456;2023-05-19T15:54:10;25.40;47.20
25918;DHT22;13899;51.174;4.456;2023-05-19T15:56:36;24.70;47.60
25918;DHT22;13899;51.174;4.456;2023-05-19T15:59:01;24.70;46.90
25918;DHT22;13899;51.174;4.456;2023-05-19T16:01:27;25.10;47.70
25918;DHT22;13899;51.174;4.456;2023-05-19T16:03:53;25.40;46.90
25918;DHT22;13899;51.174;4.456;2023-05-19T16:06:19;25.70;47.10
25918;DHT22;13899;51.174;4.456;2023-05-19T16:08:45;25.20;46.60